Warwick, MA (01378)

11:40 PM EST on December 25, 2014 (GMT -0500)
NQRA-Walnut Hill Rd. | Change Station
CLOSE
Current Station
Personal Weather Station
Location: Orange, MA
Elevation: 768 ft
Nearby Weather Stations

Elev 768 ft 42.58 °N, 72.32 °W | Updated 5 seconds ago

Partly Cloudy
Partly Cloudy
39.6 °F
Feels Like 37 °F
N
3.8
Wind Variable Wind from WNW
Gusts 7.6 mph

Today
High -- | Low -- °F
--% Chance of Precip.
Yesterday
High -- | Low -- °F
Precip. -- in
7:18 AM 4:21 PM
Waxing Crescent, 22% visible
Pressure 29.98 in
Visibility 10.0 miles
Clouds Scattered Clouds 4100 ft
Windchill 37 °F
Dew Point 28 °F
Humidity 62%
Rainfall 0.11 in
Snow Depth Not available.
UV 0.0 out of 12
Pollen .10 out of 12
Air Quality Not available.
Flu Activity Not available.
METAR KORE 260352Z AUTO 29012G18KT 10SM SCT041 06/M03 A2997 RMK AO2 SLP151 T00561028

More Conditions Fewer Conditions

Pressure 29.98 in
Visibility 10.0 miles
Clouds Scattered Clouds 4100 ft
Windchill 37 °F
Dew Point 28 °F
Humidity 62%
Rainfall 0.11 in
Snow Depth Not available.
UV 0.0 out of 12
Pollen .10 out of 12
Air Quality Not available.
Flu Activity Not available.
METAR KORE 260352Z AUTO 29012G18KT 10SM SCT041 06/M03 A2997 RMK AO2 SLP151 T00561028

More Conditions Fewer Conditions

10-Day Weather Forecast

Almanac

Astronomy

Dec. 25, 2014 Rise Set
Actual Time
Civil Twilight
Nautical Twilight
Astronomical Twilight
Moon
Length of Visible Light
Length of Day
Tomorrow will be .
, % of the Moon is Illuminated

Today's Extremes

State Highs State Lows

Community

WunderPhotos

Upload Photos

1,780,537 photos uploaded!

WunderBlogs® & News

Nearby

Air Quality

  Air Quality AQ Index Pollutant
Not available.

Snow Depth

Station Depth Elevation

Earthquake Activity

City Distance Mag. Time & Date
Minimum magnitude displayed is 2.5.

Coastal Water Temperatures

Place Temperature

Nearby Weather Stations